Time;durP1;ratioP1;P1;durP2;ratioP2;P2;SDS_P1;SDS_P2;PMS_P1;PMS_P2;Temp;Humidity;BMP_temperature;BMP_pressure;BME280_temperature;BME280_humidity;BME280_pressure;Samples;Min_cycle;Max_cycle;Signal;HPM_P1;HPM_P2
2022/08/21 00:02:21;;;;;;;5.32;3.15;;;18.50;99.50;;;;;;5046255;28;20032;-36
2022/08/21 00:04:47;;;;;;;4.60;3.35;;;18.50;99.60;;;;;;5045982;28;20073;-36
2022/08/21 00:07:13;;;;;;;3.88;2.83;;;18.50;99.70;;;;;;5047212;28;20021;-36
2022/08/21 00:09:40;;;;;;;8.10;3.40;;;18.50;99.80;;;;;;5043308;28;20045;-35
2022/08/21 00:12:06;;;;;;;5.18;3.10;;;18.40;99.80;;;;;;5046509;28;20033;-34
2022/08/21 00:14:34;;;;;;;5.60;3.28;;;18.40;99.90;;;;;;5046067;28;20060;-34
2022/08/21 00:17:00;;;;;;;4.45;3.17;;;18.40;99.90;;;;;;5045913;28;20037;-35
2022/08/21 00:19:26;;;;;;;5.30;3.30;;;18.30;99.90;;;;;;5046090;28;20017;-35
2022/08/21 00:21:53;;;;;;;3.80;2.88;;;18.30;99.90;;;;;;5046564;28;20032;-35
2022/08/21 00:24:19;;;;;;;4.22;3.10;;;18.30;99.90;;;;;;5045738;28;20448;-34
2022/08/21 00:26:46;;;;;;;5.85;2.95;;;18.30;99.90;;;;;;5046373;28;20170;-34
2022/08/21 00:29:12;;;;;;;4.63;2.70;;;18.30;99.90;;;;;;5046214;28;20013;-34
2022/08/21 00:31:37;;;;;;;6.35;3.13;;;18.30;99.90;;;;;;5045175;28;20028;-34
2022/08/21 00:34:03;;;;;;;5.38;3.13;;;18.20;99.90;;;;;;5046203;28;20769;-34
2022/08/21 00:36:29;;;;;;;3.70;2.70;;;18.20;99.90;;;;;;5046201;28;20029;-35
2022/08/21 00:38:56;;;;;;;5.20;2.70;;;18.10;99.90;;;;;;5045461;28;20037;-35
2022/08/21 00:41:23;;;;;;;7.55;2.95;;;18.10;99.90;;;;;;5046553;28;20021;-36
2022/08/21 00:43:49;;;;;;;5.97;2.70;;;18.10;99.90;;;;;;5046030;28;20031;-34
2022/08/21 00:46:15;;;;;;;5.10;3.00;;;18.10;99.90;;;;;;5045154;28;20028;-34
2022/08/21 00:48:41;;;;;;;4.97;3.00;;;18.10;99.90;;;;;;5045788;28;20335;-34
2022/08/21 00:51:13;;;;;;;3.67;2.65;;;18.00;99.90;;;;;;5044635;28;20040;-36
2022/08/21 00:53:41;;;;;;;9.63;3.00;;;18.00;99.90;;;;;;5045696;28;20060;-35
2022/08/21 00:56:10;;;;;;;5.82;3.33;;;18.00;99.90;;;;;;5044786;28;20552;-35
2022/08/21 00:58:37;;;;;;;5.55;3.20;;;18.00;99.90;;;;;;5044660;28;20025;-36
2022/08/21 01:01:05;;;;;;;6.03;2.80;;;18.00;99.90;;;;;;5045511;28;20022;-35
2022/08/21 01:03:32;;;;;;;4.25;3.00;;;18.00;99.90;;;;;;5045472;28;20033;-35
2022/08/21 01:05:57;;;;;;;7.05;2.92;;;17.90;99.90;;;;;;5044577;28;20086;-36
2022/08/21 01:08:24;;;;;;;4.05;2.92;;;17.90;99.90;;;;;;5045769;28;20488;-35
2022/08/21 01:10:51;;;;;;;5.60;3.05;;;17.90;99.90;;;;;;5044902;28;20068;-35
2022/08/21 01:13:19;;;;;;;4.68;3.03;;;17.90;99.90;;;;;;5045249;28;20400;-35
2022/08/21 01:15:48;;;;;;;5.82;3.47;;;17.80;99.90;;;;;;5044941;28;20555;-35
2022/08/21 01:18:15;;;;;;;6.15;3.30;;;17.80;99.90;;;;;;5045388;28;20100;-35
2022/08/21 01:20:45;;;;;;;4.20;2.83;;;17.80;99.90;;;;;;5044272;28;20025;-35
2022/08/21 01:23:11;;;;;;;6.28;3.13;;;17.80;99.90;;;;;;5045532;28;20024;-35
2022/08/21 01:25:37;;;;;;;5.40;3.28;;;17.80;99.90;;;;;;5044804;28;20031;-36
2022/08/21 01:28:10;;;;;;;4.80;3.38;;;17.70;99.90;;;;;;5044219;28;20621;-35
2022/08/21 01:30:38;;;;;;;5.22;3.25;;;17.70;99.90;;;;;;5045480;28;20107;-35
2022/08/21 01:33:03;;;;;;;5.38;3.45;;;17.70;99.90;;;;;;5045020;28;20037;-35
2022/08/21 01:35:29;;;;;;;6.07;3.60;;;17.70;99.90;;;;;;5044160;28;20115;-35
2022/08/21 01:37:55;;;;;;;5.65;3.42;;;17.70;99.90;;;;;;5045270;28;20032;-35
2022/08/21 01:40:21;;;;;;;7.63;3.70;;;17.60;99.90;;;;;;5045141;28;20147;-35
2022/08/21 01:42:47;;;;;;;4.35;3.20;;;17.60;99.90;;;;;;5044555;28;20385;-35
2022/08/21 01:45:13;;;;;;;4.57;3.10;;;17.60;99.90;;;;;;5045488;28;20350;-34
2022/08/21 01:47:39;;;;;;;5.07;3.53;;;17.60;99.90;;;;;;5043697;28;20384;-34
2022/08/21 01:50:09;;;;;;;3.30;2.80;;;17.50;99.90;;;;;;5044695;28;20032;-35
2022/08/21 01:52:35;;;;;;;5.70;3.45;;;17.50;99.90;;;;;;5045128;28;20016;-36
2022/08/21 01:55:01;;;;;;;5.57;3.45;;;17.50;99.90;;;;;;5044157;28;20437;-34
2022/08/21 01:57:27;;;;;;;4.63;3.38;;;17.40;99.90;;;;;;5044391;28;20056;-34
2022/08/21 01:59:52;;;;;;;5.13;3.40;;;17.50;99.90;;;;;;5044458;28;20384;-34
2022/08/21 02:02:18;;;;;;;6.80;3.60;;;17.40;99.90;;;;;;5044229;28;20028;-35
2022/08/21 02:04:44;;;;;;;5.88;3.50;;;17.40;99.90;;;;;;5043935;28;20045;-35
2022/08/21 02:07:09;;;;;;;5.32;3.80;;;17.40;99.90;;;;;;5044583;28;20104;-35
2022/08/21 02:09:35;;;;;;;6.50;3.70;;;17.40;99.90;;;;;;5043039;28;20028;-36
2022/08/21 02:12:00;;;;;;;7.15;4.05;;;17.30;99.90;;;;;;5044580;28;20040;-34
2022/08/21 02:14:26;;;;;;;4.43;3.38;;;17.30;99.90;;;;;;5043964;28;20540;-35
2022/08/21 02:16:52;;;;;;;4.88;3.53;;;17.30;99.90;;;;;;5043312;28;20040;-35
2022/08/21 02:19:18;;;;;;;6.22;3.97;;;17.30;99.90;;;;;;5044486;28;20068;-35
2022/08/21 02:21:44;;;;;;;5.72;3.85;;;17.30;99.90;;;;;;5042763;28;20060;-35
2022/08/21 02:24:11;;;;;;;4.70;3.67;;;17.30;99.90;;;;;;5043723;28;20578;-35
2022/08/21 02:26:36;;;;;;;5.90;3.83;;;17.30;99.90;;;;;;5044449;28;20036;-35
2022/08/21 02:29:04;;;;;;;5.28;3.60;;;17.20;99.90;;;;;;5044079;28;20351;-34
2022/08/21 02:31:29;;;;;;;5.32;3.47;;;17.20;99.90;;;;;;5043664;28;20035;-35
2022/08/21 02:33:55;;;;;;;5.72;3.55;;;17.20;99.90;;;;;;5044441;28;20100;-35
2022/08/21 02:36:20;;;;;;;3.80;3.40;;;17.20;99.90;;;;;;5044876;28;20044;-35
2022/08/21 02:38:46;;;;;;;8.30;4.10;;;17.10;99.90;;;;;;5043291;28;20056;-35
2022/08/21 02:41:18;;;;;;;5.55;3.90;;;17.10;99.90;;;;;;5045232;28;20040;-35
2022/08/21 02:43:44;;;;;;;5.28;3.85;;;17.10;99.90;;;;;;5043032;28;20031;-36
2022/08/21 02:46:11;;;;;;;4.68;3.92;;;17.10;99.90;;;;;;5044117;28;20028;-36
2022/08/21 02:48:38;;;;;;;6.18;4.32;;;17.00;99.90;;;;;;5044156;28;20033;-35
2022/08/21 02:51:06;;;;;;;6.75;4.60;;;17.00;99.90;;;;;;5044626;28;20056;-35
2022/08/21 02:53:32;;;;;;;7.20;4.30;;;17.00;99.90;;;;;;5044152;28;20055;-35
2022/08/21 02:56:01;;;;;;;6.55;4.55;;;17.00;99.90;;;;;;5042318;28;20056;-34
2022/08/21 02:58:31;;;;;;;6.63;4.65;;;17.00;99.90;;;;;;5036657;28;20032;-37
2022/08/21 03:00:58;;;;;;;5.97;4.18;;;17.00;99.90;;;;;;5042914;28;20474;-36
2022/08/21 03:03:24;;;;;;;8.20;5.53;;;16.90;99.90;;;;;;5044519;28;20427;-36
2022/08/21 03:05:50;;;;;;;4.97;4.30;;;16.90;99.90;;;;;;5042575;28;20109;-35
2022/08/21 03:08:17;;;;;;;6.78;4.38;;;16.90;99.90;;;;;;5024206;28;20029;-34
2022/08/21 03:10:46;;;;;;;5.13;4.47;;;16.90;99.90;;;;;;5037864;28;20098;-36
2022/08/21 03:13:12;;;;;;;5.90;4.90;;;16.90;99.90;;;;;;5043221;28;20446;-35
2022/08/21 03:15:39;;;;;;;7.10;4.70;;;16.90;99.90;;;;;;5043294;28;20046;-36
2022/08/21 03:18:06;;;;;;;7.00;4.82;;;16.80;99.90;;;;;;5044064;28;20064;-35
2022/08/21 03:20:34;;;;;;;6.88;4.65;;;16.80;99.90;;;;;;5042829;28;20032;-35
2022/08/21 03:23:00;;;;;;;6.18;4.53;;;16.80;99.90;;;;;;5043451;28;20025;-36
2022/08/21 03:25:27;;;;;;;6.57;5.25;;;16.80;99.90;;;;;;5043679;28;20025;-36
2022/08/21 03:27:52;;;;;;;7.10;4.88;;;16.80;99.90;;;;;;5042587;28;20033;-36
2022/08/21 03:30:20;;;;;;;6.70;4.95;;;16.80;99.90;;;;;;5043967;28;20028;-34
2022/08/21 03:32:47;;;;;;;6.68;5.05;;;16.80;99.90;;;;;;5041762;28;20051;-35
2022/08/21 03:35:13;;;;;;;8.15;4.95;;;16.70;99.90;;;;;;5046853;28;20504;-36
2022/08/21 03:37:40;;;;;;;6.00;5.05;;;16.70;99.90;;;;;;5047098;28;20036;-36
2022/08/21 03:40:07;;;;;;;6.88;5.07;;;16.70;99.90;;;;;;5046622;28;20024;-36
2022/08/21 03:42:33;;;;;;;7.47;5.55;;;16.70;99.90;;;;;;5045548;28;20490;-35
2022/08/21 03:44:59;;;;;;;8.85;5.28;;;16.70;99.90;;;;;;5047314;28;20059;-35
2022/08/21 03:47:25;;;;;;;6.78;5.50;;;16.70;99.90;;;;;;5046098;28;20529;-35
2022/08/21 03:49:50;;;;;;;8.18;5.60;;;16.60;99.90;;;;;;5047725;28;20985;-35
2022/08/21 03:52:16;;;;;;;7.75;5.40;;;16.70;99.90;;;;;;5047576;28;20098;-34
2022/08/21 03:54:43;;;;;;;7.18;5.63;;;16.60;99.90;;;;;;5046300;28;20017;-35
2022/08/21 03:57:10;;;;;;;6.90;5.22;;;16.60;99.90;;;;;;5046484;28;20036;-35
2022/08/21 03:59:36;;;;;;;5.65;5.05;;;16.60;99.90;;;;;;5046930;28;20051;-36
2022/08/21 04:02:05;;;;;;;8.38;5.65;;;16.50;99.90;;;;;;5045837;28;20074;-35
2022/08/21 04:04:31;;;;;;;5.90;5.30;;;16.50;99.90;;;;;;5046788;28;20129;-35
2022/08/21 04:06:57;;;;;;;7.53;5.57;;;16.50;99.90;;;;;;5047170;28;20108;-34
2022/08/21 04:09:24;;;;;;;7.75;5.78;;;16.50;99.90;;;;;;5045906;28;20120;-35
2022/08/21 04:11:50;;;;;;;7.93;5.18;;;16.50;99.90;;;;;;5046437;28;20554;-35
2022/08/21 04:14:15;;;;;;;7.68;5.72;;;16.50;99.90;;;;;;5047095;28;20035;-36
2022/08/21 04:16:42;;;;;;;7.80;5.63;;;16.50;99.90;;;;;;5045739;28;20368;-36
2022/08/21 04:19:08;;;;;;;7.47;5.97;;;16.40;99.90;;;;;;5046954;28;20057;-36
2022/08/21 04:21:36;;;;;;;7.72;5.57;;;16.40;99.90;;;;;;5046233;28;20025;-36
2022/08/21 04:24:01;;;;;;;7.30;5.45;;;16.40;99.90;;;;;;5044790;28;20105;-35
2022/08/21 04:26:27;;;;;;;7.88;5.85;;;16.40;99.90;;;;;;5046388;28;20115;-35
2022/08/21 04:28:53;;;;;;;7.32;5.45;;;16.40;99.90;;;;;;5046453;28;20021;-35
2022/08/21 04:31:18;;;;;;;8.18;5.78;;;16.40;99.90;;;;;;5045846;28;20364;-35
2022/08/21 04:33:44;;;;;;;6.55;5.18;;;16.30;99.90;;;;;;5045531;28;20033;-34
2022/08/21 04:36:10;;;;;;;10.52;5.85;;;16.30;99.90;;;;;;5045564;28;20068;-36
2022/08/21 04:38:36;;;;;;;6.18;5.05;;;16.30;99.90;;;;;;5045582;28;20079;-34
2022/08/21 04:41:02;;;;;;;7.15;5.20;;;16.30;99.90;;;;;;5046200;28;20544;-35
2022/08/21 04:43:28;;;;;;;6.43;4.90;;;16.30;99.90;;;;;;5045257;28;20111;-35
2022/08/21 04:45:54;;;;;;;9.10;6.00;;;16.30;99.90;;;;;;5045016;28;20484;-34
2022/08/21 04:48:21;;;;;;;7.28;5.53;;;16.20;99.90;;;;;;5045752;28;20028;-34
2022/08/21 04:50:50;;;;;;;8.25;5.93;;;16.20;99.90;;;;;;5045019;28;20930;-35
2022/08/21 04:53:33;;;;;;;7.03;5.72;;;16.20;99.90;;;;;;5045844;28;20096;-35
2022/08/21 04:56:04;;;;;;;7.30;5.55;;;16.20;99.90;;;;;;5046016;28;20040;-35
2022/08/21 04:58:32;;;;;;;7.25;5.82;;;16.20;99.90;;;;;;5044668;28;20482;-35
2022/08/21 05:00:59;;;;;;;6.78;6.10;;;16.20;99.90;;;;;;5045361;28;20075;-35
2022/08/21 05:03:25;;;;;;;6.10;5.50;;;16.20;99.90;;;;;;5045810;28;20017;-35
2022/08/21 05:05:51;;;;;;;9.13;6.78;;;16.20;99.90;;;;;;5044785;28;20060;-35
2022/08/21 05:08:21;;;;;;;8.00;5.80;;;16.20;99.90;;;;;;5046277;28;20481;-36
2022/08/21 05:10:47;;;;;;;8.45;5.55;;;16.20;99.90;;;;;;5045441;28;20029;-36
2022/08/21 05:13:13;;;;;;;7.38;5.38;;;16.20;99.90;;;;;;5044702;28;20099;-34
2022/08/21 05:15:40;;;;;;;9.38;5.95;;;16.30;99.90;;;;;;5045357;28;20021;-35
2022/08/21 05:18:06;;;;;;;8.23;5.45;;;16.30;99.90;;;;;;5045719;28;20369;-35
2022/08/21 05:20:34;;;;;;;7.32;5.95;;;16.30;99.90;;;;;;5044631;28;20071;-34
2022/08/21 05:23:00;;;;;;;7.65;5.75;;;16.30;99.90;;;;;;5045520;28;20048;-33
2022/08/21 05:25:26;;;;;;;7.03;5.80;;;16.30;99.90;;;;;;5044102;28;20373;-34
2022/08/21 05:27:53;;;;;;;7.30;5.68;;;16.30;99.90;;;;;;5044913;28;20447;-35
2022/08/21 05:30:19;;;;;;;6.30;5.70;;;16.30;99.90;;;;;;5045092;28;20033;-35
2022/08/21 05:32:45;;;;;;;9.82;6.72;;;16.40;99.90;;;;;;5044706;28;20547;-35
2022/08/21 05:35:11;;;;;;;7.95;6.15;;;16.40;99.90;;;;;;5044969;28;20112;-36
2022/08/21 05:37:37;;;;;;;6.90;5.68;;;16.30;99.90;;;;;;5044948;28;20029;-34
2022/08/21 05:40:03;;;;;;;10.07;6.00;;;16.40;99.90;;;;;;5044326;28;20021;-35
2022/08/21 05:42:29;;;;;;;7.15;6.43;;;16.30;99.90;;;;;;5044709;28;20112;-35
2022/08/21 05:44:54;;;;;;;8.25;5.90;;;16.40;99.90;;;;;;5044590;28;20495;-36
2022/08/21 05:47:20;;;;;;;9.05;5.80;;;16.40;99.90;;;;;;5044686;28;20021;-36
2022/08/21 05:49:46;;;;;;;7.80;6.28;;;16.40;99.90;;;;;;5044136;28;20420;-36
2022/08/21 05:52:11;;;;;;;7.05;6.35;;;16.40;99.90;;;;;;5044810;28;20539;-36
2022/08/21 05:54:37;;;;;;;7.13;6.40;;;16.50;99.90;;;;;;5044233;28;20029;-34
2022/08/21 05:57:03;;;;;;;7.85;7.05;;;16.50;99.90;;;;;;5044238;28;20033;-34
2022/08/21 05:59:29;;;;;;;9.63;6.53;;;16.50;99.90;;;;;;5044943;28;20507;-35
2022/08/21 06:01:54;;;;;;;8.43;6.00;;;16.50;99.90;;;;;;5043844;28;20459;-35
2022/08/21 06:04:20;;;;;;;7.28;6.45;;;16.50;99.90;;;;;;5045185;28;20053;-36
2022/08/21 06:06:47;;;;;;;10.10;6.35;;;16.50;99.90;;;;;;5044189;28;20489;-35
2022/08/21 06:09:12;;;;;;;7.45;6.45;;;16.50;99.90;;;;;;5044676;28;20032;-35
2022/08/21 06:11:38;;;;;;;6.95;6.35;;;16.60;99.90;;;;;;5044169;28;20029;-35
2022/08/21 06:14:06;;;;;;;7.25;5.82;;;16.50;99.90;;;;;;5044119;28;20144;-36
2022/08/21 06:16:31;;;;;;;9.43;6.68;;;16.60;99.90;;;;;;5043545;28;20037;-35
2022/08/21 06:18:57;;;;;;;8.05;6.50;;;16.60;99.90;;;;;;5044901;28;20033;-35
2022/08/21 06:21:22;;;;;;;7.72;6.90;;;16.60;99.90;;;;;;5042012;28;20413;-44
2022/08/21 06:23:48;;;;;;;8.38;6.38;;;16.60;99.90;;;;;;5042904;28;20515;-35
2022/08/21 06:26:14;;;;;;;10.02;6.85;;;16.60;99.90;;;;;;5043101;28;20772;-34
2022/08/21 06:28:41;;;;;;;9.93;6.65;;;16.60;99.90;;;;;;5042473;28;20021;-35
2022/08/21 06:31:19;;;;;;;10.10;6.10;;;16.60;99.90;;;;;;5042926;28;20029;-35
2022/08/21 06:33:46;;;;;;;9.05;6.22;;;16.70;99.90;;;;;;5042888;28;20021;-34
2022/08/21 06:36:11;;;;;;;7.63;6.25;;;16.70;99.90;;;;;;5042622;28;20036;-33
2022/08/21 06:38:37;;;;;;;7.57;5.82;;;16.70;99.90;;;;;;5042948;28;20021;-35
2022/08/21 06:41:04;;;;;;;10.23;6.10;;;16.70;99.90;;;;;;5043733;28;20465;-37
2022/08/21 06:43:29;;;;;;;7.75;5.75;;;16.70;99.90;;;;;;5042028;28;20461;-36
2022/08/21 06:45:55;;;;;;;7.63;5.65;;;16.80;99.90;;;;;;5042713;28;20036;-36
2022/08/21 06:48:20;;;;;;;8.35;5.43;;;16.80;99.90;;;;;;5043967;28;20491;-35
2022/08/21 06:50:47;;;;;;;10.25;5.63;;;16.80;99.90;;;;;;5041774;28;20025;-37
2022/08/21 06:53:16;;;;;;;8.60;5.78;;;16.90;99.90;;;;;;5043623;28;20116;-36
2022/08/21 06:55:42;;;;;;;6.57;5.72;;;16.90;99.90;;;;;;5043565;28;20329;-36
2022/08/21 06:58:08;;;;;;;7.32;5.57;;;17.00;99.90;;;;;;5043347;28;20065;-35
2022/08/21 07:00:34;;;;;;;7.95;5.45;;;17.00;99.90;;;;;;5043543;28;20025;-37
2022/08/21 07:03:00;;;;;;;8.50;5.82;;;17.00;99.90;;;;;;5043799;28;20495;-35
2022/08/21 07:05:28;;;;;;;7.97;4.72;;;17.10;99.90;;;;;;5041989;28;20071;-35
2022/08/21 07:07:54;;;;;;;8.00;4.22;;;17.20;99.90;;;;;;5043777;28;20035;-36
2022/08/21 07:10:20;;;;;;;7.15;4.97;;;17.20;99.90;;;;;;5047070;28;20025;-36
2022/08/21 07:12:45;;;;;;;8.15;4.65;;;17.30;99.90;;;;;;5045909;28;20025;-35
2022/08/21 07:15:11;;;;;;;7.22;4.30;;;17.30;99.90;;;;;;5047070;28;20086;-35
2022/08/21 07:17:36;;;;;;;9.02;4.22;;;17.40;99.90;;;;;;5046702;28;20817;-35
2022/08/21 07:20:05;;;;;;;5.82;3.92;;;17.50;99.90;;;;;;5046422;28;20031;-36
2022/08/21 07:22:30;;;;;;;8.40;4.53;;;17.50;99.90;;;;;;5046524;28;20530;-36
2022/08/21 07:24:56;;;;;;;7.40;4.45;;;17.60;99.90;;;;;;5045503;28;20032;-35
2022/08/21 07:27:22;;;;;;;6.97;4.28;;;17.70;99.90;;;;;;5047726;28;20028;-36
2022/08/21 07:29:47;;;;;;;8.90;4.63;;;17.70;99.90;;;;;;5047249;28;20032;-34
2022/08/21 07:32:14;;;;;;;5.78;3.80;;;17.80;99.90;;;;;;5047395;28;20029;-35
2022/08/21 07:34:40;;;;;;;6.93;4.00;;;17.90;99.90;;;;;;5048053;28;20033;-36
2022/08/21 07:37:06;;;;;;;7.55;4.70;;;17.90;99.90;;;;;;5047851;28;20037;-35
2022/08/21 07:39:31;;;;;;;8.77;4.53;;;18.00;99.90;;;;;;5046482;28;20013;-36
2022/08/21 07:41:57;;;;;;;10.45;4.93;;;18.10;99.90;;;;;;5047103;28;20021;-36
2022/08/21 07:44:22;;;;;;;9.10;3.95;;;18.20;99.90;;;;;;5047562;28;20468;-36
2022/08/21 07:46:48;;;;;;;9.82;4.82;;;18.30;99.90;;;;;;5046229;28;20503;-36
2022/08/21 07:49:13;;;;;;;4.97;3.05;;;18.30;99.90;;;;;;5047376;28;20480;-37
2022/08/21 07:51:39;;;;;;;6.88;3.92;;;18.40;99.90;;;;;;5046398;28;20029;-36
2022/08/21 07:54:04;;;;;;;7.03;3.60;;;18.50;99.90;;;;;;5045925;28;20013;-37
2022/08/21 07:56:31;;;;;;;6.03;3.50;;;18.50;99.90;;;;;;5047268;28;20043;-36
2022/08/21 07:58:57;;;;;;;6.88;3.65;;;18.60;99.90;;;;;;5046556;28;20491;-36
2022/08/21 08:01:23;;;;;;;7.97;4.13;;;18.60;99.90;;;;;;5045391;28;20109;-35
2022/08/21 08:03:49;;;;;;;5.35;3.30;;;18.70;99.90;;;;;;5046066;28;20044;-36
2022/08/21 08:06:18;;;;;;;10.68;3.97;;;18.70;99.90;;;;;;5045913;28;20021;-36
2022/08/21 08:08:44;;;;;;;6.57;3.55;;;18.70;99.90;;;;;;5045525;28;20104;-35
2022/08/21 08:11:10;;;;;;;6.57;3.65;;;18.70;99.90;;;;;;5046883;28;20423;-38
2022/08/21 08:13:48;;;;;;;21.17;4.57;;;18.80;99.90;;;;;;5046942;28;20025;-36
2022/08/21 08:16:14;;;;;;;5.32;2.92;;;18.80;99.90;;;;;;5045371;28;20548;-36
2022/08/21 08:18:41;;;;;;;4.80;2.70;;;19.00;99.90;;;;;;5046148;28;20089;-35
2022/08/21 08:21:08;;;;;;;8.25;3.40;;;19.10;99.90;;;;;;5045202;28;20036;-35
2022/08/21 08:23:33;;;;;;;4.15;2.72;;;19.20;99.90;;;;;;5046008;28;20384;-35
2022/08/21 08:26:02;;;;;;;7.85;3.40;;;19.30;99.90;;;;;;5046085;28;20029;-35
2022/08/21 08:28:29;;;;;;;6.72;3.30;;;19.50;99.90;;;;;;5045835;28;20025;-35
2022/08/21 08:30:55;;;;;;;7.15;3.20;;;19.50;99.90;;;;;;5046606;28;20512;-35
2022/08/21 08:33:21;;;;;;;8.98;3.05;;;19.50;99.90;;;;;;5027442;28;20095;-35
2022/08/21 08:35:49;;;;;;;10.43;4.15;;;19.50;99.90;;;;;;5032356;28;20094;-35
2022/08/21 08:38:18;;;;;;;7.05;3.60;;;19.50;99.90;;;;;;5046211;28;20021;-35
2022/08/21 08:40:55;;;;;;;4.75;2.78;;;19.50;99.90;;;;;;5045636;28;20079;-35
2022/08/21 08:43:21;;;;;;;9.45;3.53;;;19.60;99.90;;;;;;5045847;28;20139;-35
2022/08/21 08:45:52;;;;;;;4.63;2.83;;;19.60;99.90;;;;;;5045781;28;20441;-35
2022/08/21 08:48:38;;;;;;;4.68;2.65;;;19.70;99.90;;;;;;5034797;28;20094;-36
2022/08/21 08:51:18;;;;;;;4.38;2.55;;;19.80;99.90;;;;;;5045287;28;20013;-35
2022/08/21 08:53:50;;;;;;;8.55;4.00;;;20.00;99.90;;;;;;5045013;28;20032;-35
2022/08/21 08:56:21;;;;;;;8.20;2.80;;;20.10;99.90;;;;;;5045793;28;20033;-35
2022/08/21 08:58:47;;;;;;;6.22;2.90;;;20.20;99.90;;;;;;5045690;28;20097;-34
2022/08/21 09:01:17;;;;;;;6.93;2.90;;;20.30;99.90;;;;;;5045920;28;20033;-36
2022/08/21 09:03:44;;;;;;;5.60;2.20;;;20.40;99.90;;;;;;5044062;28;20028;-35
2022/08/21 09:06:44;;;;;;;6.63;2.38;;;20.50;99.90;;;;;;5045474;28;20507;-35
2022/08/21 09:09:18;;;;;;;7.30;2.60;;;20.60;99.90;;;;;;5035734;28;20045;-35
2022/08/21 09:11:53;;;;;;;5.85;2.15;;;20.70;99.90;;;;;;5044045;28;20021;-34
2022/08/21 09:14:36;;;;;;;5.22;2.30;;;20.80;99.90;;;;;;5035679;28;20036;-37
2022/08/21 09:17:33;;;;;;;4.13;1.90;;;20.90;99.90;;;;;;5044649;28;20041;-36
2022/08/21 09:20:23;;;;;;;4.22;1.90;;;21.00;99.90;;;;;;5045571;28;20139;-36
2022/08/21 09:23:12;;;;;;;4.72;1.70;;;21.10;99.90;;;;;;5043535;28;20036;-36
2022/08/21 09:25:48;;;;;;;5.35;1.80;;;21.10;99.90;;;;;;5043773;28;20287;-35
2022/08/21 09:28:14;;;;;;;4.63;1.75;;;21.10;99.90;;;;;;5045534;28;20261;-36
2022/08/21 09:30:41;;;;;;;3.90;1.55;;;21.10;99.90;;;;;;5044649;28;20067;-35
2022/08/21 09:33:07;;;;;;;1.95;1.15;;;21.10;99.90;;;;;;5044030;28;20032;-36
2022/08/21 09:35:34;;;;;;;3.33;1.60;;;21.10;99.90;;;;;;5045837;28;20021;-37
2022/08/21 09:38:05;;;;;;;5.32;1.67;;;21.20;99.90;;;;;;5044988;28;20025;-36
2022/08/21 09:40:44;;;;;;;3.03;1.60;;;21.30;99.90;;;;;;5044271;28;20029;-35
2022/08/21 09:43:23;;;;;;;4.70;2.15;;;21.40;99.90;;;;;;5045645;28;20032;-36
2022/08/21 09:46:11;;;;;;;5.70;1.77;;;21.40;99.90;;;;;;5044983;28;20434;-36
2022/08/21 09:48:47;;;;;;;2.90;1.40;;;21.50;99.90;;;;;;5044330;28;20015;-36
2022/08/21 09:51:19;;;;;;;2.67;1.27;;;21.60;99.90;;;;;;5044787;28;20029;-35
2022/08/21 09:53:53;;;;;;;4.82;1.73;;;21.70;99.90;;;;;;5043192;28;20029;-35
2022/08/21 09:59:30;;;;;;;2.88;1.40;;;21.80;99.90;;;;;;5044958;28;20043;-34
2022/08/21 10:01:58;;;;;;;3.50;1.60;;;21.90;99.90;;;;;;5044059;28;20090;-35
2022/08/21 10:04:30;;;;;;;3.75;1.50;;;22.00;99.90;;;;;;5044809;28;20187;-34
2022/08/21 10:07:07;;;;;;;5.68;1.65;;;22.10;99.90;;;;;;5043829;28;20024;-36
2022/08/21 10:09:32;;;;;;;2.92;1.27;;;22.20;99.60;;;;;;5044082;28;20020;-36
2022/08/21 10:11:58;;;;;;;5.07;1.60;;;22.20;99.50;;;;;;5044176;28;20040;-36
2022/08/21 10:14:49;;;;;;;3.72;1.20;;;22.30;99.40;;;;;;5043811;28;20040;-36
2022/08/21 10:17:27;;;;;;;3.28;1.50;;;22.30;99.20;;;;;;5044462;28;20188;-36
2022/08/21 10:20:25;;;;;;;4.07;1.70;;;22.30;99.10;;;;;;5043635;28;20025;-36
2022/08/21 10:23:02;;;;;;;6.80;2.17;;;22.30;98.70;;;;;;5024112;28;20568;-37
2022/08/21 10:25:44;;;;;;;4.35;1.60;;;22.20;98.20;;;;;;5040814;28;20017;-37
2022/08/21 10:28:10;;;;;;;3.60;1.40;;;22.20;97.90;;;;;;5023828;28;20025;-35
2022/08/21 10:31:02;;;;;;;2.30;1.20;;;22.20;98.00;;;;;;5039826;28;20032;-36
2022/08/21 10:33:42;;;;;;;2.38;1.00;;;22.30;97.90;;;;;;5043993;28;20040;-37
2022/08/21 10:36:39;;;;;;;2.28;1.05;;;22.40;97.90;;;;;;5042772;28;20136;-35
2022/08/21 10:39:24;;;;;;;3.05;1.20;;;22.60;97.80;;;;;;5040950;28;20048;-36
2022/08/21 10:42:09;;;;;;;4.43;1.30;;;22.70;97.40;;;;;;5040727;28;20396;-36
2022/08/21 10:44:39;;;;;;;4.93;1.35;;;22.90;96.90;;;;;;5043426;28;20033;-36
2022/08/21 10:47:32;;;;;;;4.47;1.30;;;23.00;96.60;;;;;;5044032;28;20021;-37
2022/08/21 10:50:12;;;;;;;2.47;1.30;;;23.10;96.10;;;;;;5043098;28;20017;-35
2022/08/21 10:52:49;;;;;;;3.55;1.35;;;23.10;96.10;;;;;;5034480;28;20029;-35
2022/08/21 10:55:23;;;;;;;2.40;1.10;;;23.20;96.20;;;;;;5044156;28;20029;-36
2022/08/21 10:57:51;;;;;;;2.22;0.90;;;23.30;96.10;;;;;;5044171;28;20040;-36
2022/08/21 11:00:21;;;;;;;3.00;1.08;;;23.30;96.00;;;;;;5044683;28;20017;-36
2022/08/21 11:03:13;;;;;;;2.78;1.00;;;23.30;95.90;;;;;;5032462;28;20056;-35
2022/08/21 11:05:47;;;;;;;5.53;1.40;;;23.40;95.80;;;;;;5043362;28;20401;-38
2022/08/21 11:08:20;;;;;;;6.30;1.40;;;23.50;95.40;;;;;;5043869;28;20082;-37
2022/08/21 11:10:57;;;;;;;1.88;1.20;;;23.60;95.30;;;;;;5042479;28;20025;-37
2022/08/21 11:13:38;;;;;;;2.83;1.10;;;23.60;95.20;;;;;;5044051;28;20053;-41
2022/08/21 11:16:32;;;;;;;2.80;1.23;;;23.70;94.60;;;;;;5046305;28;20435;-35
2022/08/21 11:19:07;;;;;;;3.13;1.40;;;23.70;93.80;;;;;;5042760;28;20029;-37
2022/08/21 11:21:49;;;;;;;3.30;1.30;;;23.80;93.90;;;;;;5043266;28;20028;-36
2022/08/21 11:24:56;;;;;;;2.72;0.90;;;23.90;93.80;;;;;;5043243;28;20392;-36
2022/08/21 11:27:31;;;;;;;4.13;1.10;;;23.90;93.70;;;;;;5043417;28;20102;-36
2022/08/21 11:29:58;;;;;;;4.15;1.35;;;24.10;93.60;;;;;;5043859;28;20029;-36
2022/08/21 11:33:01;;;;;;;4.55;1.10;;;24.20;93.50;;;;;;5042408;28;20029;-35
2022/08/21 11:35:47;;;;;;;3.80;1.27;;;24.30;93.40;;;;;;5023597;28;20117;-36
2022/08/21 11:38:38;;;;;;;3.20;1.40;;;24.40;93.00;;;;;;5041800;28;20044;-36
2022/08/21 11:41:17;;;;;;;3.45;1.17;;;24.40;93.00;;;;;;5043543;28;20029;-36
2022/08/21 11:43:59;;;;;;;4.38;1.38;;;24.40;93.00;;;;;;5042920;28;20729;-37
2022/08/21 11:46:52;;;;;;;3.00;1.20;;;24.30;93.10;;;;;;5042897;28;20032;-36
2022/08/21 11:49:49;;;;;;;7.13;1.65;;;24.20;93.10;;;;;;5043345;28;20029;-36
2022/08/21 11:52:37;;;;;;;2.63;1.30;;;24.00;93.20;;;;;;5033954;28;20033;-36
2022/08/21 11:55:17;;;;;;;3.10;1.27;;;23.90;93.20;;;;;;5045560;28;20123;-35
2022/08/21 11:57:57;;;;;;;4.97;1.48;;;23.90;93.00;;;;;;5047153;28;20144;-38
2022/08/21 12:00:27;;;;;;;2.22;1.00;;;23.90;92.90;;;;;;5046722;28;20488;-37
2022/08/21 12:02:56;;;;;;;2.13;1.17;;;23.80;92.90;;;;;;5047034;28;20245;-35
2022/08/21 12:05:34;;;;;;;2.28;1.20;;;23.90;92.90;;;;;;5046550;28;20049;-38
2022/08/21 12:08:28;;;;;;;3.42;1.20;;;23.90;92.70;;;;;;5045535;28;20061;-35
2022/08/21 12:11:10;;;;;;;4.50;1.35;;;24.10;92.40;;;;;;5043666;28;20448;-35
2022/08/21 12:13:53;;;;;;;3.50;1.20;;;24.20;92.40;;;;;;5045962;28;20446;-37
2022/08/21 12:16:36;;;;;;;4.05;1.33;;;24.20;92.20;;;;;;5047249;28;20095;-35
2022/08/21 12:19:13;;;;;;;2.47;1.00;;;24.30;92.20;;;;;;5046142;28;20207;-37
2022/08/21 12:21:54;;;;;;;2.38;1.15;;;24.50;92.00;;;;;;5045256;28;20139;-35
2022/08/21 12:24:39;;;;;;;2.25;1.05;;;24.70;91.30;;;;;;5046589;28;20707;-37
2022/08/21 12:27:20;;;;;;;3.47;1.25;;;24.90;91.10;;;;;;5026356;28;20345;-35
2022/08/21 12:29:49;;;;;;;2.53;1.10;;;25.10;91.10;;;;;;5043406;28;20029;-37
2022/08/21 12:32:14;;;;;;;3.10;1.00;;;25.20;90.60;;;;;;5045497;28;20025;-36
2022/08/21 12:34:45;;;;;;;3.63;0.90;;;25.40;90.30;;;;;;5045960;28;20065;-36
2022/08/21 12:37:34;;;;;;;3.80;1.38;;;25.40;90.00;;;;;;5047104;28;20041;-37
2022/08/21 12:40:02;;;;;;;2.65;1.00;;;25.50;89.80;;;;;;5046112;28;20075;-37
2022/08/21 12:42:38;;;;;;;3.00;1.13;;;25.50;89.00;;;;;;5025633;28;20524;-37
2022/08/21 12:45:17;;;;;;;3.20;1.15;;;25.40;88.90;;;;;;5041787;28;20032;-36
2022/08/21 12:47:54;;;;;;;2.25;1.25;;;25.30;89.50;;;;;;5026163;28;20049;-37
2022/08/21 12:50:24;;;;;;;2.00;0.88;;;25.20;89.10;;;;;;5042326;28;20834;-38
2022/08/21 12:53:15;;;;;;;2.55;0.93;;;25.20;88.80;;;;;;5026086;28;20111;-37
2022/08/21 12:55:43;;;;;;;2.60;0.93;;;25.10;88.50;;;;;;5042845;28;20484;-36
2022/08/21 12:58:18;;;;;;;1.38;0.80;;;25.30;88.20;;;;;;5045690;28;20033;-35
2022/08/21 13:00:50;;;;;;;4.57;1.00;;;25.40;88.20;;;;;;5045071;28;20056;-37
2022/08/21 13:03:16;;;;;;;3.38;1.10;;;25.40;87.50;;;;;;5045108;28;20029;-36
2022/08/21 13:05:42;;;;;;;2.30;1.00;;;25.50;86.20;;;;;;5044662;28;20593;-35